Terminal Aerodrome Forecast
Issued by NWS

Home | Current Version | Previous Version | Text Only | Print | Product List | Glossary On
Versions: 1 2 3 4 5 6 7 8 9 10 11 12
000
FTUS46 KHNX 200520
TAFVIS
TAF
KVIS 200520Z 2006/2106 30008KT P6SM BKN080
     FM201300 32011KT P6SM BKN060
      TEMPO 2013/2017 6SM -RA BKN050
     FM201800 32013G19KT P6SM SCT050
     FM210300 32007KT P6SM SKC=

USA.gov is the U.S. government's official web portal to all federal, state and local government web resources and services.